createdAt,value
2022-12-01T00:01:20.566Z,99470.47
2022-12-01T00:03:47.416Z,99469.09
2022-12-01T00:06:17.733Z,99474.66
2022-12-01T00:09:05.236Z,99471.50
2022-12-01T00:11:32.895Z,99472.00
2022-12-01T00:13:59.542Z,99468.09
2022-12-01T00:16:26.223Z,99461.03
2022-12-01T00:18:53.656Z,99462.72
2022-12-01T00:21:22.978Z,99469.59
2022-12-01T00:23:54.211Z,99459.59
2022-12-01T00:26:21.816Z,99462.72
2022-12-01T00:28:50.136Z,99462.81
2022-12-01T00:31:16.750Z,99464.31
2022-12-01T00:33:43.388Z,99468.69
2022-12-01T00:36:10.221Z,99460.94
2022-12-01T00:38:37.501Z,99463.53
2022-12-01T00:41:04.816Z,99473.59
2022-12-01T00:43:31.735Z,99470.06
2022-12-01T00:46:03.227Z,99476.91
2022-12-01T00:48:29.861Z,99471.91
2022-12-01T00:50:56.477Z,99472.00
2022-12-01T00:53:24.582Z,99473.34
2022-12-01T00:55:53.774Z,99468.78
2022-12-01T00:58:21.320Z,99479.13
2022-12-01T01:00:48.154Z,99478.97
2022-12-01T01:03:14.740Z,99478.53
2022-12-01T01:05:43.031Z,99484.47
2022-12-01T01:08:13.290Z,99480.66
2022-12-01T01:10:42.824Z,99475.84
2022-12-01T01:13:10.096Z,99487.75
2022-12-01T01:15:36.957Z,99486.72
2022-12-01T01:18:04.797Z,99491.00
2022-12-01T01:20:34.039Z,99490.91
2022-12-01T01:23:00.872Z,99493.56
2022-12-01T01:25:27.638Z,99488.56
2022-12-01T01:27:54.440Z,99498.38
2022-12-01T01:30:21.256Z,99501.06
2022-12-01T01:32:47.942Z,99506.28
2022-12-01T01:35:14.685Z,99504.75
2022-12-01T01:37:41.463Z,99499.78
2022-12-01T01:40:09.045Z,99506.72
2022-12-01T01:42:43.574Z,99508.13
2022-12-01T01:45:33.665Z,99501.50
2022-12-01T01:48:00.732Z,99504.25
2022-12-01T01:50:28.909Z,99505.00
2022-12-01T01:53:02.146Z,99499.84
2022-12-01T01:55:31.973Z,99505.22
2022-12-01T01:57:59.319Z,99492.84
2022-12-01T02:00:25.946Z,99495.66
2022-12-01T02:02:53.729Z,99499.78
2022-12-01T02:05:33.216Z,99502.16
2022-12-01T02:08:01.981Z,99499.03
2022-12-01T02:10:58.653Z,99499.31
2022-12-01T02:14:04.589Z,99501.91
2022-12-01T02:17:01.985Z,99501.16
2022-12-01T02:20:02.364Z,99500.28
2022-12-01T02:23:02.710Z,99502.97
2022-12-01T02:25:48.972Z,99507.78
2022-12-01T02:28:56.726Z,99506.56
2022-12-01T02:31:58.761Z,99495.78
2022-12-01T02:34:55.008Z,99496.84
2022-12-01T02:37:34.505Z,99491.38
2022-12-01T02:40:20.584Z,99502.69
2022-12-01T02:43:05.361Z,99499.28
2022-12-01T02:45:50.318Z,99499.13
2022-12-01T02:48:39.542Z,99498.00
2022-12-01T02:51:19.193Z,99491.69
2022-12-01T02:53:46.670Z,99497.78
2022-12-01T02:56:17.872Z,99495.59
2022-12-01T02:58:44.485Z,99502.81
2022-12-01T03:01:23.755Z,99502.81
2022-12-01T03:04:27.295Z,99503.28
2022-12-01T03:07:03.957Z,99507.00
2022-12-01T03:09:54.737Z,99511.25
2022-12-01T03:12:33.193Z,99501.56
2022-12-01T03:15:09.296Z,99511.75
2022-12-01T03:17:48.847Z,99506.75
2022-12-01T03:20:25.733Z,99504.91
2022-12-01T03:23:00.313Z,99508.94
2022-12-01T03:25:28.257Z,99503.56
2022-12-01T03:28:20.275Z,99509.16
2022-12-01T03:30:46.426Z,99502.00
2022-12-01T03:33:21.247Z,99502.47
2022-12-01T03:36:05.089Z,99500.03
2022-12-01T03:38:36.010Z,99499.44
2022-12-01T03:41:10.872Z,99500.50
2022-12-01T03:43:59.501Z,99497.16
2022-12-01T03:47:08.521Z,99500.56
2022-12-01T03:49:36.672Z,99496.63
2022-12-01T03:52:31.744Z,99502.03
2022-12-01T03:55:14.764Z,99503.06
2022-12-01T03:57:49.929Z,99506.28
2022-12-01T04:00:19.988Z,99500.88
2022-12-01T04:02:58.841Z,99509.00
2022-12-01T04:05:26.807Z,99507.91
2022-12-01T04:07:53.672Z,99506.13
2022-12-01T04:10:20.602Z,99509.00
2022-12-01T04:12:47.174Z,99516.91
2022-12-01T04:15:15.245Z,99516.91
2022-12-01T04:17:44.101Z,99512.22
2022-12-01T04:20:15.465Z,99513.19
2022-12-01T04:22:42.441Z,99507.88
2022-12-01T04:25:11.046Z,99511.00
2022-12-01T04:27:38.418Z,99516.00
2022-12-01T04:30:07.231Z,99514.34
2022-12-01T04:32:42.100Z,99512.50
2022-12-01T04:35:11.718Z,99517.75
2022-12-01T04:37:40.302Z,99508.06
2022-12-01T04:40:09.574Z,99510.44
2022-12-01T04:42:36.588Z,99515.41
2022-12-01T04:45:03.927Z,99518.22
2022-12-01T04:47:30.528Z,99523.56
2022-12-01T04:49:57.107Z,99509.31
2022-12-01T04:52:23.660Z,99502.91
2022-12-01T04:54:50.205Z,99511.72
2022-12-01T04:57:17.241Z,99513.00
2022-12-01T04:59:43.878Z,99509.59
2022-12-01T05:02:10.535Z,99511.47
2022-12-01T05:04:39.718Z,99508.22
2022-12-01T05:07:06.275Z,99510.31
2022-12-01T05:09:32.954Z,99514.41
2022-12-01T05:11:59.508Z,99518.81
2022-12-01T05:14:27.630Z,99525.41
2022-12-01T05:16:55.026Z,99519.16
2022-12-01T05:19:40.129Z,99519.91
2022-12-01T05:22:06.683Z,99519.78
2022-12-01T05:24:33.314Z,99525.09
2022-12-01T05:26:59.877Z,99527.59
2022-12-01T05:29:35.738Z,99526.53
2022-12-01T05:32:03.003Z,99527.84
2022-12-01T05:34:30.149Z,99521.63
2022-12-01T05:36:56.730Z,99526.31
2022-12-01T05:39:23.283Z,99531.25
2022-12-01T05:41:49.922Z,99531.63
2022-12-01T05:44:16.646Z,99531.09
2022-12-01T05:46:43.233Z,99526.31
2022-12-01T05:49:09.794Z,99535.59
2022-12-01T05:51:36.402Z,99535.91
2022-12-01T05:54:03.206Z,99531.63
2022-12-01T05:56:29.935Z,99533.47
2022-12-01T05:58:56.537Z,99531.16
2022-12-01T06:01:23.155Z,99536.25
2022-12-01T06:03:49.876Z,99539.03
2022-12-01T06:06:17.403Z,99542.16
2022-12-01T06:08:44.093Z,99527.63
2022-12-01T06:11:10.890Z,99533.41
2022-12-01T06:13:37.754Z,99529.81
2022-12-01T06:16:06.473Z,99537.88
2022-12-01T06:18:36.332Z,99538.38
2022-12-01T06:21:05.724Z,99549.66
2022-12-01T06:23:32.799Z,99542.88
2022-12-01T06:25:59.412Z,99551.94
2022-12-01T06:28:26.164Z,99545.03
2022-12-01T06:30:56.550Z,99544.88
2022-12-01T06:33:26.247Z,99542.88
2022-12-01T06:36:05.445Z,99553.88
2022-12-01T06:38:34.581Z,99554.09
2022-12-01T06:41:01.889Z,99553.97
2022-12-01T06:43:28.901Z,99564.09
2022-12-01T06:46:01.277Z,99563.25
2022-12-01T06:48:29.295Z,99557.56
2022-12-01T06:51:02.453Z,99560.28
2022-12-01T06:53:29.423Z,99564.72
2022-12-01T06:56:04.297Z,99574.34
2022-12-01T06:58:31.332Z,99571.97
2022-12-01T07:01:09.620Z,99570.03
2022-12-01T07:03:50.095Z,99577.84
2022-12-01T07:06:17.853Z,99578.38
2022-12-01T07:08:46.790Z,99580.59
2022-12-01T07:11:15.585Z,99580.53
2022-12-01T07:13:45.285Z,99585.59
2022-12-01T07:16:12.459Z,99581.63
2022-12-01T07:18:40.420Z,99589.78
2022-12-01T07:21:10.801Z,99592.59
2022-12-01T07:23:37.387Z,99598.66
2022-12-01T07:26:07.850Z,99600.00
2022-12-01T07:28:34.646Z,99600.00
2022-12-01T07:31:07.958Z,99601.63
2022-12-01T07:33:35.047Z,99614.19
2022-12-01T07:36:03.083Z,99613.84
2022-12-01T07:38:31.546Z,99607.94
2022-12-01T07:41:16.711Z,99619.31
2022-12-01T07:43:43.427Z,99614.19
2022-12-01T07:46:22.390Z,99611.16
2022-12-01T07:48:50.554Z,99612.19
2022-12-01T07:51:17.718Z,99616.31
2022-12-01T07:53:46.917Z,99611.28
2022-12-01T07:56:14.164Z,99620.53
2022-12-01T07:58:41.717Z,99618.44
2022-12-01T08:01:12.351Z,99617.22
2022-12-01T08:03:39.624Z,99619.25
2022-12-01T08:06:07.675Z,99616.63
2022-12-01T08:08:39.330Z,99622.91
2022-12-01T08:11:13.007Z,99625.13
2022-12-01T08:13:41.228Z,99625.53
2022-12-01T08:16:19.564Z,99622.75
2022-12-01T08:18:47.332Z,99632.03
2022-12-01T08:21:20.396Z,99623.78
2022-12-01T08:23:54.545Z,99625.53
2022-12-01T08:26:22.971Z,99640.06
2022-12-01T08:28:50.106Z,99639.09
2022-12-01T08:31:32.954Z,99644.47
2022-12-01T08:33:59.695Z,99647.41
2022-12-01T08:36:29.191Z,99645.47
2022-12-01T08:38:56.508Z,99644.81
2022-12-01T08:41:24.532Z,99640.28
2022-12-01T08:43:59.384Z,99654.50
2022-12-01T08:46:36.247Z,99643.84
2022-12-01T08:49:05.777Z,99645.53
2022-12-01T08:51:33.090Z,99647.25
2022-12-01T08:54:00.822Z,99652.66
2022-12-01T08:56:34.807Z,99650.19
2022-12-01T08:59:01.880Z,99645.09
2022-12-01T09:01:29.156Z,99642.88
2022-12-01T09:04:08.507Z,99646.09
2022-12-01T09:06:42.587Z,99639.34
2022-12-01T09:09:14.056Z,99649.53
2022-12-01T09:11:43.507Z,99650.69
2022-12-01T09:14:14.933Z,99649.50
2022-12-01T09:16:43.170Z,99651.91
2022-12-01T09:19:13.112Z,99648.88
2022-12-01T09:21:43.235Z,99652.31
2022-12-01T09:24:11.895Z,99642.75
2022-12-01T09:26:38.632Z,99651.59
2022-12-01T09:29:13.422Z,99654.19
2022-12-01T09:31:40.717Z,99653.91
2022-12-01T09:34:12.980Z,99648.25
2022-12-01T09:36:39.939Z,99650.56
2022-12-01T09:39:12.636Z,99644.88
2022-12-01T09:41:50.854Z,99647.78
2022-12-01T09:44:38.389Z,99633.41
2022-12-01T09:47:21.012Z,99651.38
2022-12-01T09:50:02.367Z,99643.97
2022-12-01T09:52:38.671Z,99643.97
2022-12-01T09:55:15.618Z,99643.94
2022-12-01T09:57:43.937Z,99639.47
2022-12-01T10:00:18.000Z,99634.47
2022-12-01T10:02:56.165Z,99628.41
2022-12-01T10:05:26.800Z,99638.78
2022-12-01T10:08:01.341Z,99625.66
2022-12-01T10:10:34.467Z,99619.25
2022-12-01T10:13:01.147Z,99616.66
2022-12-01T10:15:51.193Z,99615.72
2022-12-01T10:18:26.821Z,99617.94
2022-12-01T10:21:31.183Z,99609.31
2022-12-01T10:24:57.282Z,99615.28
2022-12-01T10:27:45.812Z,99610.69
2022-12-01T10:30:23.435Z,99615.63
2022-12-01T10:33:05.327Z,99614.59
2022-12-01T10:35:37.526Z,99607.59
2022-12-01T10:38:13.704Z,99601.78
2022-12-01T10:40:42.596Z,99601.88
2022-12-01T10:43:10.686Z,99604.84
2022-12-01T10:45:43.824Z,99602.94
2022-12-01T10:48:15.716Z,99603.91
2022-12-01T10:50:57.076Z,99599.59
2022-12-01T10:53:23.559Z,99593.59
2022-12-01T10:55:59.215Z,99594.72
2022-12-01T10:58:39.987Z,99593.47
2022-12-01T11:01:07.067Z,99596.41
2022-12-01T11:03:35.951Z,99592.63
2022-12-01T11:06:06.316Z,99583.84
2022-12-01T11:09:05.151Z,99586.75
2022-12-01T11:11:39.801Z,99588.78
2022-12-01T11:14:20.947Z,99591.59
2022-12-01T11:16:52.231Z,99590.72
2022-12-01T11:19:27.568Z,99582.81
2022-12-01T11:21:59.285Z,99575.78
2022-12-01T11:24:55.409Z,99582.13
2022-12-01T11:27:35.021Z,99580.22
2022-12-01T11:30:24.102Z,99571.81
2022-12-01T11:32:57.893Z,99571.13
2022-12-01T11:35:28.470Z,99569.47
2022-12-01T11:38:28.333Z,99575.19
2022-12-01T11:40:57.087Z,99569.63
2022-12-01T11:43:33.301Z,99577.69
2022-12-01T11:46:07.442Z,99577.53
2022-12-01T11:48:36.179Z,99575.19
2022-12-01T11:51:24.225Z,99577.47
2022-12-01T11:54:15.300Z,99575.34
2022-12-01T11:56:44.249Z,99571.97
2022-12-01T11:59:16.501Z,99575.63
2022-12-01T12:02:41.079Z,99572.13
2022-12-01T12:05:42.364Z,99568.56
2022-12-01T12:08:45.023Z,99571.75
2022-12-01T12:11:21.862Z,99567.56
2022-12-01T12:14:08.737Z,99567.28
2022-12-01T12:16:53.805Z,99564.25
2022-12-01T12:20:08.496Z,99574.22
2022-12-01T12:23:16.099Z,99572.72
2022-12-01T12:26:19.075Z,99577.03
2022-12-01T12:29:17.484Z,99573.13
2022-12-01T12:32:08.123Z,99571.41
2022-12-01T12:34:53.524Z,99566.50
2022-12-01T12:37:41.493Z,99565.59
2022-12-01T12:40:56.423Z,99557.75
2022-12-01T12:43:33.425Z,99556.75
2022-12-01T12:46:07.989Z,99564.69
2022-12-01T12:49:20.909Z,99560.56
2022-12-01T12:52:05.077Z,99564.06
2022-12-01T12:54:57.260Z,99564.53
2022-12-01T12:57:35.784Z,99556.78
2022-12-01T13:00:06.832Z,99561.72
2022-12-01T13:02:43.524Z,99554.41
2022-12-01T13:05:25.032Z,99562.31
2022-12-01T13:08:01.651Z,99553.88
2022-12-01T13:10:46.234Z,99555.72
2022-12-01T13:13:42.536Z,99556.59
2022-12-01T13:16:16.979Z,99553.19
2022-12-01T13:18:54.492Z,99555.03
2022-12-01T13:21:23.806Z,99549.91
2022-12-01T13:23:52.108Z,99552.06
2022-12-01T13:26:20.869Z,99549.09
2022-12-01T13:28:52.801Z,99550.25
2022-12-01T13:31:21.017Z,99540.94
2022-12-01T13:33:58.905Z,99546.88
2022-12-01T13:39:35.314Z,99537.97
2022-12-01T13:42:06.825Z,99536.53
2022-12-01T13:44:50.479Z,99529.69
2022-12-01T13:47:17.144Z,99535.47
2022-12-01T13:49:45.747Z,99527.09
2022-12-01T13:52:21.584Z,99527.59
2022-12-01T13:55:09.200Z,99531.75
2022-12-01T13:58:13.025Z,99533.28
2022-12-01T14:00:41.120Z,99519.91
2022-12-01T14:03:19.820Z,99519.28
2022-12-01T14:05:52.994Z,99520.09
2022-12-01T14:08:26.485Z,99519.34
2022-12-01T14:11:07.181Z,99519.50
2022-12-01T14:14:05.454Z,99519.66
2022-12-01T14:16:52.723Z,99518.91
2022-12-01T14:19:36.991Z,99527.13
2022-12-01T14:22:06.877Z,99529.09
2022-12-01T14:24:41.342Z,99528.88
2022-12-01T14:27:11.670Z,99530.44
2022-12-01T14:29:42.997Z,99523.16
2022-12-01T14:32:09.519Z,99521.94
2022-12-01T14:34:37.841Z,99530.91
2022-12-01T14:37:18.211Z,99521.63
2022-12-01T14:39:57.394Z,99523.00
2022-12-01T14:42:55.930Z,99512.75
2022-12-01T14:45:39.911Z,99520.94
2022-12-01T14:48:17.030Z,99518.41
2022-12-01T14:50:54.852Z,99513.34
2022-12-01T14:53:29.603Z,99522.78
2022-12-01T14:56:00.635Z,99516.00
2022-12-01T14:58:30.888Z,99516.72
2022-12-01T15:01:08.604Z,99515.53
2022-12-01T15:03:48.960Z,99513.19
2022-12-01T15:06:21.923Z,99518.03
2022-12-01T15:09:33.087Z,99511.09
2022-12-01T15:12:03.444Z,99507.16
2022-12-01T15:14:34.591Z,99507.25
2022-12-01T15:17:04.959Z,99504.25
2022-12-01T15:19:40.527Z,99518.56
2022-12-01T15:22:15.016Z,99507.16
2022-12-01T15:24:42.531Z,99504.75
2022-12-01T15:27:30.809Z,99506.69
2022-12-01T15:30:03.173Z,99503.88
2022-12-01T15:32:32.516Z,99504.28
2022-12-01T15:35:04.578Z,99504.28
2022-12-01T15:37:42.489Z,99510.56
2022-12-01T15:43:24.572Z,99514.66
2022-12-01T15:45:57.460Z,99519.97
2022-12-01T15:48:30.986Z,99512.38
2022-12-01T15:51:10.226Z,99515.47
2022-12-01T15:53:42.528Z,99516.38
2022-12-01T15:56:11.140Z,99521.94
2022-12-01T15:58:47.380Z,99518.75
2022-12-01T16:01:20.549Z,99522.16
2022-12-01T16:03:47.136Z,99533.44
2022-12-01T16:06:14.043Z,99524.19
2022-12-01T16:08:40.892Z,99525.06
2022-12-01T16:11:18.729Z,99521.56
2022-12-01T16:14:22.400Z,99525.28
2022-12-01T16:16:51.292Z,99532.31
2022-12-01T16:19:17.800Z,99524.72
2022-12-01T16:21:53.918Z,99526.19
2022-12-01T16:24:29.693Z,99534.97
2022-12-01T16:27:05.432Z,99532.34
2022-12-01T16:29:54.783Z,99534.84
2022-12-01T16:32:40.986Z,99541.34
2022-12-01T16:35:33.726Z,99543.88
2022-12-01T16:38:12.408Z,99541.31
2022-12-01T16:40:42.387Z,99545.97
2022-12-01T16:43:15.436Z,99551.13
2022-12-01T16:45:46.601Z,99540.75
2022-12-01T16:48:14.148Z,99543.00
2022-12-01T16:50:40.868Z,99540.84
2022-12-01T16:53:07.452Z,99535.00
2022-12-01T16:55:48.343Z,99541.09
2022-12-01T16:58:15.168Z,99536.19
2022-12-01T17:00:41.985Z,99530.63
2022-12-01T17:03:11.855Z,99530.19
2022-12-01T17:05:38.484Z,99520.72
2022-12-01T17:08:05.781Z,99520.56
2022-12-01T17:10:32.761Z,99520.84
2022-12-01T17:12:59.701Z,99524.06
2022-12-01T17:15:26.364Z,99530.28
2022-12-01T17:17:53.762Z,99524.38
2022-12-01T17:20:20.390Z,99528.50
2022-12-01T17:22:46.956Z,99528.78
2022-12-01T17:25:13.580Z,99523.41
2022-12-01T17:27:41.762Z,99514.50
2022-12-01T17:30:09.205Z,99517.91
2022-12-01T17:32:36.561Z,99517.69
2022-12-01T17:35:03.474Z,99518.16
2022-12-01T17:37:30.026Z,99519.72
2022-12-01T17:39:56.592Z,99523.53
2022-12-01T17:42:25.493Z,99522.25
2022-12-01T17:44:52.279Z,99516.88
2022-12-01T17:47:19.032Z,99519.03
2022-12-01T17:49:45.644Z,99522.03
2022-12-01T17:52:12.387Z,99529.63
2022-12-01T17:54:39.022Z,99529.22
2022-12-01T17:57:07.233Z,99527.88
2022-12-01T17:59:36.622Z,99526.53
2022-12-01T18:02:04.289Z,99534.38
2022-12-01T18:04:31.367Z,99533.84
2022-12-01T18:06:58.013Z,99531.72
2022-12-01T18:09:24.720Z,99535.81
2022-12-01T18:11:51.313Z,99534.56
2022-12-01T18:14:20.591Z,99532.06
2022-12-01T18:16:47.322Z,99533.63
2022-12-01T18:19:14.136Z,99539.53
2022-12-01T18:21:41.278Z,99531.13
2022-12-01T18:24:09.123Z,99536.72
2022-12-01T18:26:39.636Z,99539.09
2022-12-01T18:29:25.485Z,99534.44
2022-12-01T18:31:57.059Z,99539.53
2022-12-01T18:34:26.395Z,99531.13
2022-12-01T18:36:58.192Z,99531.28
2022-12-01T18:39:24.804Z,99534.91
2022-12-01T18:41:51.469Z,99542.78
2022-12-01T18:44:18.144Z,99534.22
2022-12-01T18:46:44.820Z,99534.31
2022-12-01T18:49:12.462Z,99529.03
2022-12-01T18:51:39.665Z,99526.88
2022-12-01T18:54:08.849Z,99529.88
2022-12-01T18:56:35.537Z,99531.84
2022-12-01T18:59:08.483Z,99525.88
2022-12-01T19:01:39.895Z,99524.81
2022-12-01T19:04:08.526Z,99525.25
2022-12-01T19:06:37.772Z,99520.16
2022-12-01T19:09:08.922Z,99527.06
2022-12-01T19:11:36.800Z,99520.47
2022-12-01T19:14:03.582Z,99519.44
2022-12-01T19:16:33.174Z,99517.53
2022-12-01T19:19:01.229Z,99518.03
2022-12-01T19:21:27.829Z,99519.66
2022-12-01T19:23:54.525Z,99521.25
2022-12-01T19:26:22.651Z,99521.72
2022-12-01T19:28:49.883Z,99520.66
2022-12-01T19:31:20.783Z,99518.69
2022-12-01T19:33:47.583Z,99519.22
2022-12-01T19:36:17.876Z,99517.91
2022-12-01T19:38:45.422Z,99517.63
2022-12-01T19:41:14.048Z,99511.00
2022-12-01T19:43:54.104Z,99510.19
2022-12-01T19:46:23.534Z,99514.53
2022-12-01T19:48:57.313Z,99517.34
2022-12-01T19:51:28.784Z,99510.47
2022-12-01T19:53:55.456Z,99508.31
2022-12-01T19:56:22.809Z,99510.00
2022-12-01T19:58:49.901Z,99509.38
2022-12-01T20:01:18.198Z,99516.22
2022-12-01T20:03:48.311Z,99512.03
2022-12-01T20:06:22.283Z,99506.31
2022-12-01T20:08:50.172Z,99506.31
2022-12-01T20:11:17.293Z,99506.91
2022-12-01T20:13:46.344Z,99506.78
2022-12-01T20:16:17.585Z,99510.66
2022-12-01T20:18:44.673Z,99504.22
2022-12-01T20:21:18.881Z,99508.31
2022-12-01T20:23:55.369Z,99502.47
2022-12-01T20:26:26.125Z,99500.22
2022-12-01T20:29:00.993Z,99507.97
2022-12-01T20:31:30.054Z,99504.13
2022-12-01T20:33:59.708Z,99506.78
2022-12-01T20:36:27.306Z,99500.50
2022-12-01T20:38:54.549Z,99505.16
2022-12-01T20:41:21.312Z,99495.44
2022-12-01T20:43:48.301Z,99506.94
2022-12-01T20:46:15.736Z,99500.53
2022-12-01T20:48:42.631Z,99498.00
2022-12-01T20:51:11.209Z,99500.50
2022-12-01T20:53:37.841Z,99504.94
2022-12-01T20:56:07.255Z,99497.09
2022-12-01T20:58:37.532Z,99495.31
2022-12-01T21:01:11.521Z,99488.94
2022-12-01T21:03:40.213Z,99491.63
2022-12-01T21:06:07.784Z,99487.13
2022-12-01T21:08:38.379Z,99489.19
2022-12-01T21:11:17.870Z,99489.69
2022-12-01T21:13:46.132Z,99493.78
2022-12-01T21:16:33.241Z,99487.06
2022-12-01T21:19:06.270Z,99489.53
2022-12-01T21:21:39.106Z,99487.94
2022-12-01T21:24:18.539Z,99486.84
2022-12-01T21:26:58.738Z,99491.22
2022-12-01T21:29:38.504Z,99497.56
2022-12-01T21:32:23.084Z,99492.25
2022-12-01T21:34:50.121Z,99487.06
2022-12-01T21:37:23.250Z,99494.38
2022-12-01T21:39:52.448Z,99501.44
2022-12-01T21:42:31.083Z,99500.28
2022-12-01T21:44:57.777Z,99497.69
2022-12-01T21:47:28.380Z,99497.69
2022-12-01T21:49:59.541Z,99490.41
2022-12-01T21:52:39.512Z,99502.00
2022-12-01T21:55:15.419Z,99494.53
2022-12-01T21:57:50.827Z,99495.03
2022-12-01T22:00:36.736Z,99489.59
2022-12-01T22:03:09.286Z,99497.16
2022-12-01T22:05:48.905Z,99494.44
2022-12-01T22:08:35.639Z,99488.63
2022-12-01T22:11:08.304Z,99486.38
2022-12-01T22:13:53.000Z,99491.47
2022-12-01T22:16:35.685Z,99489.78
2022-12-01T22:19:28.035Z,99486.78
2022-12-01T22:22:03.687Z,99494.22
2022-12-01T22:24:40.888Z,99479.63
2022-12-01T22:27:37.029Z,99484.69
2022-12-01T22:30:19.663Z,99484.56
2022-12-01T22:32:59.144Z,99485.44
2022-12-01T22:35:28.823Z,99480.16
2022-12-01T22:38:00.708Z,99481.38
2022-12-01T22:40:54.777Z,99477.47
2022-12-01T22:43:33.112Z,99474.63
2022-12-01T22:46:07.224Z,99476.59
2022-12-01T22:48:47.086Z,99469.78
2022-12-01T22:51:13.807Z,99474.69
2022-12-01T22:53:42.132Z,99466.25
2022-12-01T22:56:33.804Z,99469.75
2022-12-01T22:59:00.606Z,99469.75
2022-12-01T23:01:33.239Z,99464.31
2022-12-01T23:04:26.640Z,99461.84
2022-12-01T23:07:09.607Z,99467.25
2022-12-01T23:09:41.669Z,99460.31
2022-12-01T23:12:11.259Z,99462.41
2022-12-01T23:14:52.248Z,99459.38
2022-12-01T23:17:32.724Z,99460.31
2022-12-01T23:20:20.580Z,99458.22
2022-12-01T23:22:54.796Z,99450.94
2022-12-01T23:25:23.269Z,99448.03
2022-12-01T23:27:52.499Z,99447.63
2022-12-01T23:30:21.527Z,99444.81
2022-12-01T23:33:12.267Z,99441.28
2022-12-01T23:35:46.471Z,99439.75
2022-12-01T23:38:24.409Z,99430.56
2022-12-01T23:40:58.796Z,99428.28
2022-12-01T23:43:29.776Z,99416.25
2022-12-01T23:46:12.051Z,99421.00
2022-12-01T23:48:55.159Z,99414.13
2022-12-01T23:51:28.510Z,99415.72
2022-12-01T23:53:57.030Z,99408.66
2022-12-01T23:56:26.567Z,99409.69
2022-12-01T23:58:55.904Z,99419.81
